createdAt,value
2018-09-27T00:01:10.205Z,9.50
2018-09-27T00:03:38.912Z,8.83
2018-09-27T00:06:07.251Z,10.10
2018-09-27T00:08:35.756Z,9.17
2018-09-27T00:11:04.741Z,9.50
2018-09-27T00:13:33.421Z,10.10
2018-09-27T00:16:01.780Z,6.43
2018-09-27T00:18:37.250Z,6.60
2018-09-27T00:21:06.214Z,7.30
2018-09-27T00:23:34.716Z,7.67
2018-09-27T00:26:03.190Z,7.33
2018-09-27T00:28:31.844Z,8.47
2018-09-27T00:31:01.328Z,7.60
2018-09-27T00:33:29.885Z,6.47
2018-09-27T00:35:58.352Z,9.07
2018-09-27T00:38:26.821Z,11.60
2018-09-27T00:40:58.967Z,10.43
2018-09-27T00:43:27.927Z,10.63
2018-09-27T00:45:56.472Z,10.47
2018-09-27T00:48:25.568Z,9.37
2018-09-27T00:50:54.217Z,8.40
2018-09-27T00:53:22.782Z,7.40
2018-09-27T00:55:51.365Z,9.77
2018-09-27T00:58:19.749Z,7.27
2018-09-27T01:00:48.252Z,8.50
2018-09-27T01:03:16.736Z,8.27
2018-09-27T01:05:45.178Z,9.57
2018-09-27T01:08:13.725Z,9.93
2018-09-27T01:10:42.327Z,8.67
2018-09-27T01:13:10.884Z,7.10
2018-09-27T01:15:39.533Z,8.73
2018-09-27T01:18:07.976Z,9.37
2018-09-27T01:20:36.384Z,8.17
2018-09-27T01:23:04.943Z,8.13
2018-09-27T01:25:33.427Z,5.77
2018-09-27T01:28:01.852Z,10.57
2018-09-27T01:30:30.374Z,9.80
2018-09-27T01:33:06.041Z,9.53
2018-09-27T01:35:38.263Z,6.57
2018-09-27T01:38:22.247Z,5.57
2018-09-27T01:40:50.552Z,8.43
2018-09-27T01:43:19.078Z,10.30
2018-09-27T01:45:47.660Z,8.23
2018-09-27T01:48:16.484Z,8.43
2018-09-27T01:50:45.066Z,9.77
2018-09-27T01:53:13.669Z,10.73
2018-09-27T01:55:42.533Z,12.23
2018-09-27T01:58:11.117Z,9.53
2018-09-27T02:00:39.689Z,10.40
2018-09-27T02:03:07.978Z,7.43
2018-09-27T02:05:36.253Z,6.90
2018-09-27T02:08:04.712Z,5.80
2018-09-27T02:10:33.160Z,7.23
2018-09-27T02:13:01.678Z,6.40
2018-09-27T02:15:30.139Z,9.30
2018-09-27T02:17:58.767Z,9.47
2018-09-27T02:20:27.270Z,5.50
2018-09-27T02:22:55.786Z,10.20
2018-09-27T02:25:24.377Z,5.20
2018-09-27T02:27:52.850Z,4.90
2018-09-27T02:30:21.305Z,11.27
2018-09-27T02:32:49.787Z,7.93
2018-09-27T02:35:18.393Z,6.70
2018-09-27T02:37:46.818Z,4.20
2018-09-27T02:40:15.400Z,7.60
2018-09-27T02:42:43.939Z,6.00
2018-09-27T02:45:12.546Z,6.83
2018-09-27T02:47:41.090Z,5.53
2018-09-27T02:50:09.636Z,7.37
2018-09-27T02:52:38.080Z,8.03
2018-09-27T02:55:06.860Z,6.20
2018-09-27T02:57:43.085Z,5.00
2018-09-27T03:00:15.391Z,10.43
2018-09-27T03:02:43.916Z,4.77
2018-09-27T03:05:12.575Z,7.97
2018-09-27T03:07:41.033Z,6.67
2018-09-27T03:10:09.502Z,8.00
2018-09-27T03:12:37.948Z,9.10
2018-09-27T03:15:06.551Z,7.90
2018-09-27T03:17:35.075Z,4.53
2018-09-27T03:20:03.557Z,5.47
2018-09-27T03:22:32.033Z,9.30
2018-09-27T03:25:00.505Z,6.47
2018-09-27T03:27:29.170Z,4.50
2018-09-27T03:29:57.714Z,7.00
2018-09-27T03:32:27.637Z,7.17
2018-09-27T03:34:56.480Z,6.97
2018-09-27T03:37:25.154Z,5.40
2018-09-27T03:39:53.637Z,6.87
2018-09-27T03:42:22.072Z,8.77
2018-09-27T03:44:50.395Z,7.43
2018-09-27T03:47:19.658Z,6.17
2018-09-27T03:49:48.262Z,4.83
2018-09-27T03:52:16.946Z,5.40
2018-09-27T03:54:45.197Z,7.10
2018-09-27T03:57:14.435Z,6.70
2018-09-27T03:59:42.872Z,6.03
2018-09-27T04:02:12.162Z,6.60
2018-09-27T04:04:40.352Z,6.20
2018-09-27T04:07:08.722Z,6.77
2018-09-27T04:09:37.109Z,7.87
2018-09-27T04:12:05.455Z,7.37
2018-09-27T04:14:33.858Z,9.57
2018-09-27T04:17:02.130Z,7.50
2018-09-27T04:19:30.689Z,6.73
2018-09-27T04:21:58.995Z,6.37
2018-09-27T04:24:37.553Z,4.93
2018-09-27T04:27:06.036Z,7.43
2018-09-27T04:29:34.447Z,8.27
2018-09-27T04:32:02.985Z,6.97
2018-09-27T04:34:31.330Z,6.80
2018-09-27T04:36:59.645Z,6.13
2018-09-27T04:39:28.195Z,7.63
2018-09-27T04:41:56.478Z,6.37
2018-09-27T04:44:28.624Z,9.13
2018-09-27T04:46:56.908Z,9.20
2018-09-27T04:49:25.624Z,10.80
2018-09-27T04:51:54.100Z,9.27
2018-09-27T04:54:22.564Z,8.40
2018-09-27T04:56:50.806Z,7.30
2018-09-27T04:59:19.205Z,9.07
2018-09-27T05:01:47.569Z,8.33
2018-09-27T05:04:15.996Z,6.23
2018-09-27T05:06:45.511Z,8.70
2018-09-27T05:09:14.002Z,10.63
2018-09-27T05:11:42.503Z,7.60
2018-09-27T05:14:11.008Z,8.90
2018-09-27T05:16:39.636Z,11.83
2018-09-27T05:19:08.381Z,6.23
2018-09-27T05:21:37.023Z,8.23
2018-09-27T05:24:05.424Z,10.13
2018-09-27T05:26:33.906Z,9.13
2018-09-27T05:29:02.610Z,11.90
2018-09-27T05:31:31.134Z,6.83
2018-09-27T05:33:59.925Z,6.90
2018-09-27T05:36:28.713Z,10.60
2018-09-27T05:38:57.604Z,9.63
2018-09-27T05:41:26.288Z,6.60
2018-09-27T05:43:55.233Z,6.50
2018-09-27T05:46:23.896Z,8.23
2018-09-27T05:48:52.605Z,6.97
2018-09-27T05:51:21.362Z,6.60
2018-09-27T05:53:50.024Z,5.80
2018-09-27T05:56:27.111Z,4.67
2018-09-27T05:58:57.055Z,6.50
2018-09-27T06:01:26.181Z,6.37
2018-09-27T06:03:55.249Z,5.67
2018-09-27T06:06:24.058Z,6.37
2018-09-27T06:08:52.632Z,6.50
2018-09-27T06:11:21.598Z,7.93
2018-09-27T06:13:50.099Z,6.87
2018-09-27T06:16:19.042Z,9.17
2018-09-27T06:18:47.686Z,14.20
2018-09-27T06:21:16.529Z,11.10
2018-09-27T06:23:54.735Z,13.37
2018-09-27T06:26:23.357Z,8.50
2018-09-27T06:28:52.139Z,10.00
2018-09-27T06:31:21.967Z,8.97
2018-09-27T06:33:50.854Z,7.27
2018-09-27T06:39:03.215Z,11.30
2018-09-27T06:41:32.233Z,6.47
2018-09-27T06:44:01.004Z,7.17
2018-09-27T06:46:30.006Z,8.00
2018-09-27T06:48:58.591Z,5.93
2018-09-27T06:51:27.274Z,7.60
2018-09-27T06:53:56.052Z,9.13
2018-09-27T06:56:25.197Z,7.00
2018-09-27T07:18:16.376Z,9.10
2018-09-27T07:20:48.273Z,8.17
2018-09-27T07:23:36.590Z,6.30
2018-09-27T07:26:23.618Z,12.73
2018-09-27T07:28:55.029Z,8.43
2018-09-27T07:31:25.153Z,6.97
2018-09-27T07:37:25.142Z,6.27
2018-09-27T07:42:39.831Z,6.77
2018-09-27T07:45:08.752Z,6.13
2018-09-27T07:47:44.125Z,6.60
2018-09-27T07:50:12.645Z,5.83
2018-09-27T07:52:42.603Z,4.53
2018-09-27T07:55:14.937Z,10.20
2018-09-27T08:00:26.793Z,5.10
2018-09-27T08:03:14.334Z,4.70
2018-09-27T08:05:43.101Z,6.07
2018-09-27T08:08:16.409Z,5.30
2018-09-27T08:15:15.794Z,5.80
2018-09-27T08:17:44.734Z,5.13
2018-09-27T08:20:13.369Z,5.77
2018-09-27T08:22:41.951Z,7.17
2018-09-27T08:25:24.630Z,6.50
2018-09-27T08:27:54.378Z,6.60
2018-09-27T08:30:23.010Z,6.25
2018-09-27T08:35:47.569Z,4.83
2018-09-27T08:39:54.197Z,5.65
2018-09-27T08:42:41.354Z,6.22
2018-09-27T08:45:11.104Z,5.15
2018-09-27T08:47:41.961Z,7.15
2018-09-27T08:50:12.006Z,8.13
2018-09-27T08:52:40.929Z,4.30
2018-09-27T08:55:20.604Z,5.70
2018-09-27T08:57:52.986Z,7.28
2018-09-27T09:00:21.838Z,6.20
2018-09-27T09:02:51.037Z,11.03
2018-09-27T09:05:21.739Z,5.42
2018-09-27T09:07:50.211Z,6.95
2018-09-27T09:10:20.553Z,4.45
2018-09-27T09:12:49.178Z,7.30
2018-09-27T09:18:19.913Z,8.38
2018-09-27T09:23:44.814Z,5.87
2018-09-27T09:26:15.135Z,5.80
2018-09-27T09:28:44.061Z,6.85
2018-09-27T09:31:23.607Z,8.90
2018-09-27T09:33:52.087Z,10.13
2018-09-27T09:36:21.572Z,8.58
2018-09-27T09:38:50.581Z,21.12
2018-09-27T09:41:18.910Z,24.40
2018-09-27T09:43:50.862Z,20.97
2018-09-27T09:46:19.381Z,26.48
2018-09-27T09:48:47.940Z,29.35
2018-09-27T09:51:26.452Z,25.12
2018-09-27T09:53:54.791Z,21.15
2018-09-27T09:56:23.248Z,22.87
2018-09-27T09:58:51.680Z,24.60
2018-09-27T10:01:20.005Z,29.60
2018-09-27T10:06:30.284Z,22.65
2018-09-27T10:11:55.973Z,23.15
2018-09-27T10:14:24.337Z,15.40
2018-09-27T10:16:52.895Z,14.25
2018-09-27T10:19:21.584Z,14.63
2018-09-27T10:21:50.384Z,13.95
2018-09-27T10:24:19.773Z,17.12
2018-09-27T10:26:48.226Z,12.80
2018-09-27T10:29:19.424Z,12.23
2018-09-27T10:31:48.021Z,14.78
2018-09-27T10:34:16.651Z,12.88
2018-09-27T10:36:44.999Z,13.43
2018-09-27T10:39:13.719Z,14.13
2018-09-27T10:41:42.858Z,14.33
2018-09-27T10:44:11.677Z,16.02
2018-09-27T10:46:40.397Z,13.70
2018-09-27T10:51:46.785Z,12.95
2018-09-27T10:54:15.566Z,12.10
2018-09-27T10:56:44.080Z,17.30
2018-09-27T10:59:13.462Z,13.32
2018-09-27T11:01:42.088Z,14.63
2018-09-27T11:04:11.135Z,10.45
2018-09-27T11:06:39.614Z,7.80
2018-09-27T11:12:20.565Z,8.48
2018-09-27T11:15:05.324Z,9.60
2018-09-27T11:17:34.562Z,7.35
2018-09-27T11:20:07.130Z,6.53
2018-09-27T11:22:37.257Z,6.45
2018-09-27T11:25:05.798Z,4.08
2018-09-27T11:27:34.619Z,3.77
2018-09-27T11:30:08.687Z,5.60
2018-09-27T11:32:46.642Z,4.08
2018-09-27T11:35:15.531Z,2.45
2018-09-27T11:37:45.785Z,3.52
2018-09-27T11:40:14.532Z,7.75
2018-09-27T11:42:43.214Z,5.12
2018-09-27T11:45:13.085Z,4.15
2018-09-27T11:47:46.437Z,2.90
2018-09-27T11:50:16.866Z,2.70
2018-09-27T11:52:47.673Z,1.50
2018-09-27T11:55:27.220Z,3.08
2018-09-27T11:57:56.180Z,2.65
2018-09-27T12:00:30.079Z,2.10
2018-09-27T12:03:13.170Z,4.00
2018-09-27T12:05:42.971Z,2.45
2018-09-27T12:08:16.754Z,2.37
2018-09-27T12:10:46.256Z,7.17
2018-09-27T12:13:16.283Z,4.25
2018-09-27T12:15:44.646Z,1.98
2018-09-27T12:18:12.985Z,3.70
2018-09-27T12:20:42.406Z,4.03
2018-09-27T12:23:10.862Z,5.35
2018-09-27T12:25:39.539Z,2.60
2018-09-27T12:28:08.160Z,3.87
2018-09-27T12:30:36.525Z,2.15
2018-09-27T12:36:05.670Z,2.55
2018-09-27T12:38:59.389Z,1.77
2018-09-27T12:44:13.226Z,3.35
2018-09-27T12:46:47.139Z,3.80
2018-09-27T12:49:15.989Z,2.67
2018-09-27T12:51:56.633Z,3.85
2018-09-27T12:54:28.859Z,3.22
2018-09-27T12:56:57.614Z,4.35
2018-09-27T12:59:29.173Z,2.55
2018-09-27T13:01:57.993Z,4.05
2018-09-27T13:04:26.488Z,3.67
2018-09-27T13:06:55.237Z,4.15
2018-09-27T13:09:28.918Z,2.50
2018-09-27T13:11:57.293Z,2.70
2018-09-27T13:14:25.772Z,1.50
2018-09-27T13:16:54.266Z,1.72
2018-09-27T13:19:22.809Z,2.55
2018-09-27T13:21:51.258Z,2.90
2018-09-27T13:24:19.792Z,3.12
2018-09-27T13:26:48.548Z,1.95
2018-09-27T13:29:17.091Z,2.00
2018-09-27T13:31:45.560Z,2.37
2018-09-27T13:34:14.068Z,2.42
2018-09-27T13:36:47.104Z,1.98
2018-09-27T13:39:15.694Z,3.40
2018-09-27T13:41:45.516Z,2.08
2018-09-27T13:44:14.179Z,3.45
2018-09-27T13:46:42.804Z,5.05
2018-09-27T13:49:11.340Z,3.72
2018-09-27T13:51:50.670Z,2.15
2018-09-27T13:54:19.175Z,3.30
2018-09-27T13:56:47.736Z,2.95
2018-09-27T13:59:17.138Z,2.65
2018-09-27T14:02:04.734Z,3.92
2018-09-27T14:04:33.805Z,3.50
2018-09-27T14:07:03.386Z,2.30
2018-09-27T14:09:32.019Z,5.47
2018-09-27T14:12:00.577Z,3.05
2018-09-27T14:14:29.404Z,4.62
2018-09-27T14:16:58.022Z,3.10
2018-09-27T14:19:26.445Z,5.47
2018-09-27T14:21:54.886Z,3.77
2018-09-27T14:24:23.515Z,1.98
2018-09-27T14:26:51.955Z,3.17
2018-09-27T14:29:20.374Z,3.52
2018-09-27T14:31:49.320Z,4.72
2018-09-27T14:34:17.662Z,3.87
2018-09-27T14:36:46.145Z,4.22
2018-09-27T14:39:15.490Z,4.70
2018-09-27T14:41:43.848Z,3.58
2018-09-27T14:44:12.456Z,4.10
2018-09-27T14:46:40.940Z,4.08
2018-09-27T14:49:11.403Z,5.78
2018-09-27T14:51:52.087Z,2.95
2018-09-27T14:54:20.546Z,4.15
2018-09-27T14:56:49.060Z,6.20
2018-09-27T14:59:20.062Z,1.98
2018-09-27T15:01:48.832Z,4.85
2018-09-27T15:04:17.580Z,3.02
2018-09-27T15:06:46.300Z,3.20
2018-09-27T15:09:14.554Z,6.80
2018-09-27T15:11:43.214Z,2.47
2018-09-27T15:14:13.298Z,3.60
2018-09-27T15:16:53.786Z,4.17
2018-09-27T15:19:24.462Z,2.85
2018-09-27T15:21:54.945Z,2.27
2018-09-27T15:24:23.431Z,2.80
2018-09-27T15:27:02.574Z,4.12
2018-09-27T15:29:31.024Z,3.30
2018-09-27T15:31:59.340Z,2.50
2018-09-27T15:34:29.544Z,2.37
2018-09-27T15:36:58.388Z,2.65
2018-09-27T15:39:39.792Z,3.75
2018-09-27T15:45:26.858Z,3.17
2018-09-27T15:47:55.862Z,6.97
2018-09-27T15:50:31.637Z,3.58
2018-09-27T15:53:18.159Z,2.72
2018-09-27T15:58:39.974Z,7.67
2018-09-27T16:14:57.390Z,4.58
2018-09-27T16:35:58.526Z,2.55
2018-09-27T16:41:19.253Z,4.58
2018-09-27T16:43:59.035Z,2.77
2018-09-27T16:46:30.912Z,5.37
2018-09-27T16:49:01.630Z,3.00
2018-09-27T17:06:17.426Z,6.87
2018-09-27T17:08:58.211Z,6.65
2018-09-27T17:11:26.877Z,3.00
2018-09-27T17:14:04.939Z,5.67
2018-09-27T17:16:41.112Z,3.63
2018-09-27T17:19:14.020Z,5.07
2018-09-27T17:21:44.280Z,7.37
2018-09-27T17:24:16.936Z,7.73
2018-09-27T17:27:01.900Z,7.33
2018-09-27T17:33:58.906Z,3.67
2018-09-27T17:36:32.536Z,4.57
2018-09-27T17:39:16.192Z,4.60
2018-09-27T17:41:45.693Z,6.47
2018-09-27T17:51:09.186Z,5.03
2018-09-27T18:05:48.207Z,5.73
2018-09-27T18:08:35.672Z,6.23
2018-09-27T18:11:05.979Z,6.27
2018-09-27T18:13:40.617Z,4.93
2018-09-27T18:19:23.547Z,3.60
2018-09-27T18:27:01.886Z,6.10
2018-09-27T18:29:35.953Z,4.93
2018-09-27T18:32:06.023Z,6.77
2018-09-27T18:34:37.779Z,6.17
2018-09-27T18:37:06.180Z,3.93
2018-09-27T18:39:35.071Z,7.87
2018-09-27T18:42:03.539Z,7.57
2018-09-27T18:44:31.886Z,6.63
2018-09-27T18:47:01.253Z,8.10
2018-09-27T18:49:30.100Z,8.73
2018-09-27T18:52:09.851Z,6.23
2018-09-27T18:54:38.459Z,5.50
2018-09-27T19:12:11.253Z,11.23
2018-09-27T19:17:49.670Z,8.83
2018-09-27T19:23:03.047Z,12.67
2018-09-27T19:25:31.980Z,11.57
2018-09-27T19:28:00.438Z,8.67
2018-09-27T19:30:44.887Z,11.37
2018-09-27T19:33:14.396Z,12.00
2018-09-27T19:35:44.528Z,16.93
2018-09-27T19:38:14.035Z,11.00
2018-09-27T19:40:42.762Z,8.80
2018-09-27T19:45:48.897Z,15.53
2018-09-27T19:48:20.062Z,7.37
2018-09-27T19:56:44.733Z,7.13
2018-09-27T20:02:10.630Z,7.73
2018-09-27T20:04:46.816Z,6.97
2018-09-27T20:07:15.956Z,9.27
2018-09-27T20:09:45.677Z,6.80
2018-09-27T20:12:15.147Z,10.07
2018-09-27T20:14:43.858Z,10.97
2018-09-27T20:17:12.656Z,12.60
2018-09-27T20:19:47.010Z,8.60
2018-09-27T20:22:17.608Z,10.90
2018-09-27T20:25:02.961Z,7.30
2018-09-27T20:27:31.329Z,11.87
2018-09-27T20:33:03.598Z,9.57
2018-09-27T20:35:33.564Z,7.40
2018-09-27T20:38:11.720Z,12.17
2018-09-27T20:40:41.511Z,8.20
2018-09-27T21:42:27.446Z,13.57
2018-09-27T21:44:56.148Z,8.40
2018-09-27T21:47:24.720Z,8.53
2018-09-27T21:49:53.466Z,10.57
2018-09-27T21:52:32.997Z,12.60
2018-09-27T21:55:01.884Z,13.80
2018-09-27T21:57:34.248Z,13.80
2018-09-27T22:00:02.946Z,9.77
2018-09-27T22:02:31.594Z,11.30
2018-09-27T22:05:04.256Z,12.13
2018-09-27T22:07:32.944Z,8.47
2018-09-27T22:10:01.463Z,7.93
2018-09-27T22:12:30.217Z,11.20
2018-09-27T22:28:28.788Z,11.07
2018-09-27T22:34:02.103Z,9.93
2018-09-27T22:36:30.867Z,8.17
2018-09-27T22:38:59.365Z,9.27
2018-09-27T22:41:39.331Z,10.27
2018-09-27T22:44:09.636Z,12.47
2018-09-27T22:49:49.856Z,7.47
2018-09-27T22:52:19.010Z,11.37
2018-09-27T22:58:00.412Z,8.47
2018-09-27T23:00:29.438Z,11.67
2018-09-27T23:03:00.642Z,6.17
2018-09-27T23:05:29.322Z,5.90
2018-09-27T23:07:58.738Z,6.07
2018-09-27T23:10:29.543Z,7.37
2018-09-27T23:13:06.776Z,9.60
2018-09-27T23:15:39.389Z,6.60
2018-09-27T23:21:26.271Z,7.17
2018-09-27T23:27:02.235Z,7.33
2018-09-27T23:29:35.843Z,9.40
2018-09-27T23:32:05.190Z,9.63
2018-09-27T23:34:37.874Z,9.33
2018-09-27T23:37:07.223Z,8.60
2018-09-27T23:39:41.305Z,7.30
2018-09-27T23:42:28.895Z,9.47
2018-09-27T23:44:57.884Z,5.50
2018-09-27T23:47:26.862Z,8.07
2018-09-27T23:52:42.346Z,6.23
2018-09-27T23:58:04.331Z,10.53
